createdAt,value
2022-08-05T00:02:07.705Z,20.99
2022-08-05T00:04:46.351Z,20.94
2022-08-05T00:08:01.066Z,20.83
2022-08-05T00:10:27.147Z,20.79
2022-08-05T00:13:01.011Z,20.83
2022-08-05T00:15:55.016Z,20.84
2022-08-05T00:18:30.789Z,20.87
2022-08-05T00:21:06.462Z,20.87
2022-08-05T00:23:46.345Z,20.86
2022-08-05T00:26:21.999Z,20.88
2022-08-05T00:28:56.018Z,20.86
2022-08-05T00:31:53.554Z,20.85
2022-08-05T00:34:56.058Z,20.84
2022-08-05T00:37:18.834Z,20.84
2022-08-05T00:39:58.574Z,20.82
2022-08-05T00:42:35.487Z,20.81
2022-08-05T00:45:13.466Z,20.79
2022-08-05T00:47:57.043Z,20.80
2022-08-05T00:50:31.740Z,20.80
2022-08-05T00:53:09.783Z,20.80
2022-08-05T00:56:00.480Z,20.81
2022-08-05T00:58:34.108Z,20.80
2022-08-05T01:01:09.016Z,20.79
2022-08-05T01:03:45.161Z,20.80
2022-08-05T01:06:32.398Z,20.80
2022-08-05T01:09:07.889Z,20.80
2022-08-05T01:11:42.899Z,20.80
2022-08-05T01:14:28.440Z,20.78
2022-08-05T01:17:07.391Z,20.77
2022-08-05T01:20:01.338Z,20.74
2022-08-05T01:22:54.131Z,20.75
2022-08-05T01:25:54.852Z,20.77
2022-08-05T01:28:37.111Z,20.75
2022-08-05T01:31:18.291Z,20.73
2022-08-05T01:33:58.427Z,20.71
2022-08-05T01:36:37.111Z,20.69
2022-08-05T01:39:36.069Z,20.67
2022-08-05T01:42:15.214Z,20.65
2022-08-05T01:44:54.339Z,20.64
2022-08-05T01:47:38.796Z,20.62
2022-08-05T01:50:19.245Z,20.58
2022-08-05T01:53:05.541Z,20.55
2022-08-05T01:55:44.863Z,20.53
2022-08-05T01:58:41.025Z,20.51
2022-08-05T02:01:16.042Z,20.49
2022-08-05T02:03:59.159Z,20.48
2022-08-05T02:06:38.241Z,20.45
2022-08-05T02:09:14.565Z,20.42
2022-08-05T02:11:52.855Z,20.39
2022-08-05T02:14:32.255Z,20.38
2022-08-05T02:18:28.745Z,20.39
2022-08-05T02:20:20.709Z,20.37
2022-08-05T02:22:59.858Z,20.34
2022-08-05T02:25:49.396Z,20.31
2022-08-05T02:28:29.003Z,20.30
2022-08-05T02:31:14.447Z,20.27
2022-08-05T02:33:57.416Z,20.26
2022-08-05T02:36:33.360Z,20.24
2022-08-05T02:39:11.134Z,20.21
2022-08-05T02:42:01.359Z,20.19
2022-08-05T02:44:37.562Z,20.18
2022-08-05T02:47:12.319Z,20.16
2022-08-05T02:49:48.366Z,20.13
2022-08-05T02:52:30.077Z,20.11
2022-08-05T02:55:10.885Z,20.08
2022-08-05T02:58:19.652Z,20.05
2022-08-05T03:00:40.660Z,20.03
2022-08-05T03:03:23.474Z,20.02
2022-08-05T03:06:53.819Z,19.99
2022-08-05T03:08:56.180Z,20.00
2022-08-05T03:11:54.823Z,19.99
2022-08-05T03:14:23.835Z,19.99
2022-08-05T03:16:57.552Z,20.00
2022-08-05T03:19:34.566Z,19.98
2022-08-05T03:22:16.047Z,19.98
2022-08-05T03:24:52.698Z,19.96
2022-08-05T03:27:29.731Z,19.93
2022-08-05T03:30:21.293Z,19.93
2022-08-05T03:33:08.100Z,19.92
2022-08-05T03:35:41.986Z,19.91
2022-08-05T03:38:23.818Z,19.89
2022-08-05T03:41:10.714Z,19.88
2022-08-05T03:44:08.075Z,19.89
2022-08-05T03:46:38.581Z,19.89
2022-08-05T03:49:12.166Z,19.91
2022-08-05T03:52:37.259Z,19.93
2022-08-05T03:55:52.639Z,19.95
2022-08-05T03:57:50.433Z,19.98
2022-08-05T04:00:29.587Z,20.02
2022-08-05T04:03:08.168Z,20.06
2022-08-05T04:05:49.227Z,20.12
2022-08-05T04:08:35.207Z,20.17
2022-08-05T04:11:12.654Z,20.21
2022-08-05T04:13:53.325Z,20.25
2022-08-05T04:16:32.351Z,20.32
2022-08-05T04:19:10.568Z,20.38
2022-08-05T04:22:08.278Z,20.45
2022-08-05T04:24:38.258Z,20.54
2022-08-05T04:27:19.332Z,20.60
2022-08-05T04:30:08.605Z,20.70
2022-08-05T04:32:42.669Z,20.79
2022-08-05T04:35:17.499Z,20.88
2022-08-05T04:38:01.488Z,20.97
2022-08-05T04:40:47.826Z,21.08
2022-08-05T04:43:26.093Z,21.19
2022-08-05T04:45:59.631Z,21.29
2022-08-05T04:48:33.397Z,21.39
2022-08-05T04:51:11.483Z,21.50
2022-08-05T04:53:45.388Z,21.61
2022-08-05T04:56:34.929Z,21.71
2022-08-05T04:59:21.619Z,21.80
2022-08-05T05:02:35.171Z,21.90
2022-08-05T05:04:52.483Z,22.03
2022-08-05T05:07:36.021Z,22.17
2022-08-05T05:10:10.425Z,22.26
2022-08-05T05:12:44.209Z,22.35
2022-08-05T05:15:54.271Z,22.46
2022-08-05T05:18:15.415Z,22.59
2022-08-05T05:21:03.905Z,22.70
2022-08-05T05:23:39.051Z,22.81
2022-08-05T05:26:32.768Z,22.95
2022-08-05T05:29:10.152Z,23.06
2022-08-05T05:31:49.999Z,23.16
2022-08-05T05:34:26.937Z,23.24
2022-08-05T05:37:00.827Z,23.36
2022-08-05T05:39:35.178Z,23.50
2022-08-05T05:42:10.011Z,23.66
2022-08-05T05:44:46.021Z,23.82
2022-08-05T05:47:21.489Z,23.97
2022-08-05T05:50:01.498Z,24.08
2022-08-05T05:52:38.115Z,24.22
2022-08-05T05:55:15.684Z,24.31
2022-08-05T05:57:52.870Z,24.40
2022-08-05T06:00:27.757Z,24.49
2022-08-05T06:03:40.854Z,24.61
2022-08-05T06:06:00.263Z,24.74
2022-08-05T06:08:34.959Z,24.88
2022-08-05T06:11:13.510Z,25.01
2022-08-05T06:13:53.798Z,25.15
2022-08-05T06:16:33.051Z,25.31
2022-08-05T06:19:12.712Z,25.46
2022-08-05T06:21:59.941Z,25.63
2022-08-05T06:24:34.764Z,25.77
2022-08-05T06:27:17.227Z,25.91
2022-08-05T06:30:04.632Z,26.22
2022-08-05T06:32:51.641Z,26.26
2022-08-05T06:36:07.517Z,26.35
2022-08-05T06:38:35.988Z,26.48
2022-08-05T06:41:16.852Z,26.57
2022-08-05T06:43:57.926Z,26.63
2022-08-05T06:46:33.536Z,26.75
2022-08-05T06:49:08.349Z,26.81
2022-08-05T06:51:43.530Z,26.92
2022-08-05T06:54:18.070Z,27.06
2022-08-05T06:56:54.880Z,27.17
2022-08-05T06:59:55.201Z,27.33
2022-08-05T07:02:32.496Z,27.49
2022-08-05T07:05:14.221Z,27.63
2022-08-05T07:07:53.473Z,27.94
2022-08-05T07:10:30.525Z,27.98
2022-08-05T07:13:39.467Z,28.11
2022-08-05T07:17:59.722Z,28.26
2022-08-05T07:20:16.686Z,28.44
2022-08-05T07:22:28.662Z,28.60
2022-08-05T07:25:22.833Z,28.74
2022-08-05T07:28:03.739Z,28.89
2022-08-05T07:30:41.390Z,29.04
2022-08-05T07:33:17.359Z,29.18
2022-08-05T07:36:02.194Z,29.33
2022-08-05T07:38:43.684Z,29.54
2022-08-05T07:42:14.610Z,29.73
2022-08-05T07:44:18.987Z,29.92
2022-08-05T07:46:53.079Z,30.07
2022-08-05T07:49:27.582Z,30.19
2022-08-05T07:52:01.753Z,30.38
2022-08-05T07:54:41.235Z,30.56
2022-08-05T07:57:51.291Z,30.77
2022-08-05T08:00:17.057Z,30.99
2022-08-05T08:03:15.186Z,31.13
2022-08-05T08:05:49.767Z,31.37
2022-08-05T08:08:23.618Z,31.61
2022-08-05T08:11:00.838Z,31.75
2022-08-05T08:13:49.331Z,31.83
2022-08-05T08:16:35.948Z,31.98
2022-08-05T08:20:10.418Z,32.13
2022-08-05T08:22:16.936Z,32.38
2022-08-05T08:24:51.460Z,32.58
2022-08-05T08:27:40.409Z,32.84
2022-08-05T08:30:33.935Z,33.20
2022-08-05T08:33:13.963Z,33.66
2022-08-05T08:35:53.860Z,33.98
2022-08-05T08:38:41.651Z,34.52
2022-08-05T08:41:17.333Z,34.99
2022-08-05T08:45:21.320Z,35.57
2022-08-05T08:46:50.292Z,36.42
2022-08-05T08:50:23.369Z,37.58
2022-08-05T08:52:25.358Z,38.75
2022-08-05T08:55:00.014Z,39.65
2022-08-05T08:57:48.300Z,40.41
2022-08-05T09:00:30.245Z,41.27
2022-08-05T09:03:07.901Z,41.82
2022-08-05T09:06:08.602Z,42.37
2022-08-05T09:08:35.474Z,42.92
2022-08-05T09:11:15.208Z,43.28
2022-08-05T09:14:10.113Z,43.95
2022-08-05T09:16:42.756Z,44.51
2022-08-05T09:19:24.709Z,45.29
2022-08-05T09:22:22.719Z,45.69
2022-08-05T09:24:59.723Z,46.20
2022-08-05T09:28:04.704Z,46.76
2022-08-05T09:30:29.186Z,47.17
2022-08-05T09:33:04.926Z,47.27
2022-08-05T09:35:54.051Z,46.91
2022-08-05T09:38:29.566Z,45.69
2022-08-05T09:41:08.732Z,44.76
2022-08-05T09:43:42.364Z,44.07
2022-08-05T09:46:28.401Z,43.42
2022-08-05T09:49:07.683Z,42.85
2022-08-05T09:51:53.578Z,42.41
2022-08-05T09:54:32.549Z,42.13
2022-08-05T09:57:06.223Z,42.04
2022-08-05T09:59:59.581Z,42.11
2022-08-05T10:02:35.476Z,42.14
2022-08-05T10:05:11.987Z,42.21
2022-08-05T10:08:36.481Z,42.29
2022-08-05T10:10:54.642Z,42.35
2022-08-05T10:13:43.824Z,42.22
2022-08-05T10:16:33.910Z,42.21
2022-08-05T10:19:09.428Z,42.15
2022-08-05T10:21:43.781Z,42.10
2022-08-05T10:24:19.952Z,42.07
2022-08-05T10:27:01.770Z,42.01
2022-08-05T10:30:06.804Z,41.83
2022-08-05T10:32:53.842Z,41.67
2022-08-05T10:35:33.803Z,41.59
2022-08-05T10:38:15.263Z,41.49
2022-08-05T10:41:00.718Z,41.43
2022-08-05T10:43:44.927Z,41.31
2022-08-05T10:46:23.788Z,41.24
2022-08-05T10:49:00.592Z,41.17
2022-08-05T10:51:48.622Z,41.03
2022-08-05T10:54:56.168Z,40.61
2022-08-05T10:57:34.235Z,40.18
2022-08-05T11:00:19.170Z,39.60
2022-08-05T11:03:23.004Z,38.80
2022-08-05T11:06:20.898Z,38.13
2022-08-05T11:09:16.980Z,37.62
2022-08-05T11:11:52.886Z,37.18
2022-08-05T11:17:59.813Z,36.21
2022-08-05T11:20:43.737Z,35.75
2022-08-05T11:23:33.224Z,35.41
2022-08-05T11:26:09.448Z,35.22
2022-08-05T11:28:47.088Z,35.06
2022-08-05T11:31:57.835Z,34.91
2022-08-05T11:34:38.843Z,34.76
2022-08-05T11:38:28.420Z,34.68
2022-08-05T11:40:06.595Z,34.63
2022-08-05T11:42:47.370Z,34.61
2022-08-05T11:46:14.745Z,34.58
2022-08-05T11:48:16.630Z,34.49
2022-08-05T11:50:52.910Z,34.44
2022-08-05T11:53:26.847Z,34.46
2022-08-05T11:56:07.536Z,34.43
2022-08-05T11:58:51.304Z,34.39
2022-08-05T12:01:26.940Z,34.32
2022-08-05T12:04:01.962Z,34.30
2022-08-05T12:06:37.427Z,34.26
2022-08-05T12:09:53.445Z,34.14
2022-08-05T12:12:24.038Z,34.09
2022-08-05T12:15:00.124Z,34.08
2022-08-05T12:18:02.720Z,34.03
2022-08-05T12:20:34.076Z,33.93
2022-08-05T12:23:13.584Z,33.81
2022-08-05T12:25:57.322Z,33.70
2022-08-05T12:28:39.015Z,33.67
2022-08-05T12:31:12.705Z,33.68
2022-08-05T12:33:57.538Z,33.69
2022-08-05T12:36:35.448Z,33.73
2022-08-05T12:39:09.448Z,33.80
2022-08-05T12:41:43.585Z,33.84
2022-08-05T12:44:32.676Z,33.82
2022-08-05T12:47:12.589Z,33.87
2022-08-05T12:50:04.561Z,33.91
2022-08-05T12:52:42.649Z,33.90
2022-08-05T12:55:22.139Z,33.99
2022-08-05T12:58:38.513Z,34.03
2022-08-05T13:02:03.287Z,34.05
2022-08-05T13:03:48.885Z,34.07
2022-08-05T13:06:29.410Z,34.06
2022-08-05T13:09:10.432Z,34.10
2022-08-05T13:12:02.061Z,34.15
2022-08-05T13:14:38.722Z,34.13
2022-08-05T13:17:31.540Z,34.05
2022-08-05T13:20:20.332Z,34.01
2022-08-05T13:22:57.539Z,34.02
2022-08-05T13:25:58.847Z,33.90
2022-08-05T13:28:26.878Z,33.88
2022-08-05T13:31:03.300Z,33.82
2022-08-05T13:34:23.461Z,33.69
2022-08-05T13:36:38.805Z,33.49
2022-08-05T13:40:14.313Z,33.35
2022-08-05T13:42:14.798Z,33.19
2022-08-05T13:44:49.114Z,33.04
2022-08-05T13:47:34.946Z,32.93
2022-08-05T13:50:14.792Z,32.85
2022-08-05T13:52:50.276Z,32.80
2022-08-05T13:55:41.041Z,32.80
2022-08-05T13:58:23.277Z,32.82
2022-08-05T14:01:05.417Z,32.82
2022-08-05T14:03:40.836Z,32.76
2022-08-05T14:06:26.757Z,32.70
2022-08-05T14:09:01.552Z,32.68
2022-08-05T14:12:00.462Z,32.67
2022-08-05T14:14:37.585Z,32.72
2022-08-05T14:17:16.889Z,32.76
2022-08-05T14:19:55.462Z,32.80
2022-08-05T14:22:34.526Z,32.81
2022-08-05T14:25:21.362Z,32.83
2022-08-05T14:27:55.944Z,32.84
2022-08-05T14:30:30.866Z,32.85
2022-08-05T14:33:05.263Z,32.87
2022-08-05T14:35:50.477Z,32.89
2022-08-05T14:38:32.911Z,32.88
2022-08-05T14:41:09.609Z,32.91
2022-08-05T14:44:02.461Z,33.01
2022-08-05T14:46:38.634Z,33.05
2022-08-05T14:49:12.285Z,33.15
2022-08-05T14:51:45.957Z,33.21
2022-08-05T14:54:27.575Z,33.27
2022-08-05T14:57:05.362Z,33.35
2022-08-05T14:59:43.421Z,33.43
2022-08-05T15:02:18.530Z,33.46
2022-08-05T15:04:54.142Z,33.39
2022-08-05T15:08:11.621Z,33.34
2022-08-05T15:10:28.868Z,33.29
2022-08-05T15:13:04.785Z,33.23
2022-08-05T15:15:55.881Z,33.19
2022-08-05T15:18:31.421Z,33.15
2022-08-05T15:21:07.464Z,33.13
2022-08-05T15:23:41.675Z,33.11
2022-08-05T15:26:15.660Z,33.10
2022-08-05T15:29:05.444Z,33.06
2022-08-05T15:31:39.770Z,33.02
2022-08-05T15:34:32.376Z,32.98
2022-08-05T15:38:09.325Z,32.99
2022-08-05T15:41:00.212Z,32.99
2022-08-05T15:43:00.462Z,32.99
2022-08-05T15:45:45.747Z,32.99
2022-08-05T15:48:21.199Z,32.98
2022-08-05T15:51:03.450Z,32.98
2022-08-05T15:53:51.356Z,32.94
2022-08-05T15:56:25.368Z,32.93
2022-08-05T15:59:04.252Z,32.93
2022-08-05T16:01:52.064Z,32.97
2022-08-05T16:04:27.030Z,32.94
2022-08-05T16:07:02.342Z,32.88
2022-08-05T16:09:35.921Z,32.87
2022-08-05T16:12:11.481Z,32.88
2022-08-05T16:14:45.936Z,32.82
2022-08-05T16:17:20.288Z,32.79
2022-08-05T16:20:05.379Z,32.76
2022-08-05T16:22:46.277Z,32.73
2022-08-05T16:25:20.555Z,32.73
2022-08-05T16:28:04.878Z,32.75
2022-08-05T16:30:39.694Z,32.78
2022-08-05T16:33:15.521Z,32.81
2022-08-05T16:35:53.060Z,32.78
2022-08-05T16:38:29.332Z,32.76
2022-08-05T16:42:12.684Z,32.74
2022-08-05T16:43:57.691Z,32.73
2022-08-05T16:46:31.593Z,32.72
2022-08-05T16:49:06.752Z,32.75
2022-08-05T16:51:42.568Z,32.78
2022-08-05T16:54:31.924Z,32.84
2022-08-05T16:57:14.957Z,32.87
2022-08-05T17:00:01.350Z,32.87
2022-08-05T17:02:38.106Z,32.87
2022-08-05T17:05:11.833Z,32.85
2022-08-05T17:07:53.136Z,32.69
2022-08-05T17:10:30.619Z,32.52
2022-08-05T17:13:04.495Z,32.36
2022-08-05T17:15:47.858Z,32.21
2022-08-05T17:18:22.243Z,32.09
2022-08-05T17:20:56.278Z,31.94
2022-08-05T17:24:05.479Z,31.76
2022-08-05T17:26:25.109Z,31.57
2022-08-05T17:28:59.375Z,31.44
2022-08-05T17:31:56.933Z,31.39
2022-08-05T17:34:32.622Z,31.29
2022-08-05T17:37:36.149Z,31.21
2022-08-05T17:40:03.368Z,31.12
2022-08-05T17:42:46.425Z,31.05
2022-08-05T17:45:29.733Z,30.97
2022-08-05T17:48:12.534Z,30.87
2022-08-05T17:50:46.243Z,30.78
2022-08-05T17:53:20.939Z,30.69
2022-08-05T17:55:54.695Z,30.58
2022-08-05T17:58:32.821Z,30.48
2022-08-05T18:01:08.187Z,30.40
2022-08-05T18:03:58.678Z,30.28
2022-08-05T18:06:40.326Z,30.20
2022-08-05T18:10:00.032Z,30.09
2022-08-05T18:12:35.810Z,30.00
2022-08-05T18:15:11.721Z,29.94
2022-08-05T18:17:59.229Z,29.81
2022-08-05T18:20:35.505Z,29.73
2022-08-05T18:23:12.244Z,29.64
2022-08-05T18:25:47.667Z,29.56
2022-08-05T18:28:31.632Z,29.48
2022-08-05T18:31:07.224Z,29.40
2022-08-05T18:33:47.170Z,29.30
2022-08-05T18:36:27.860Z,29.27
2022-08-05T18:39:01.988Z,29.13
2022-08-05T18:41:56.221Z,29.01
2022-08-05T18:44:34.970Z,28.92
2022-08-05T18:47:26.694Z,28.91
2022-08-05T18:50:17.956Z,28.72
2022-08-05T18:52:51.909Z,28.60
2022-08-05T18:55:25.628Z,28.56
2022-08-05T18:58:03.593Z,28.50
2022-08-05T19:00:37.569Z,28.43
2022-08-05T19:03:17.877Z,28.34
2022-08-05T19:06:20.140Z,28.31
2022-08-05T19:08:56.083Z,28.27
2022-08-05T19:11:59.412Z,28.28
2022-08-05T19:14:59.368Z,28.30
2022-08-05T19:17:17.702Z,28.24
2022-08-05T19:19:54.321Z,28.19
2022-08-05T19:22:28.088Z,28.14
2022-08-05T19:25:02.642Z,28.07
2022-08-05T19:27:36.481Z,28.02
2022-08-05T19:30:11.162Z,27.97
2022-08-05T19:32:45.842Z,27.91
2022-08-05T19:35:21.798Z,27.86
2022-08-05T19:38:06.247Z,27.82
2022-08-05T19:40:43.961Z,27.79
2022-08-05T19:44:04.572Z,27.74
2022-08-05T19:46:16.829Z,27.68
2022-08-05T19:49:04.383Z,27.63
2022-08-05T19:52:08.350Z,27.57
2022-08-05T19:54:34.337Z,27.54
2022-08-05T19:57:09.922Z,27.51
2022-08-05T19:59:56.536Z,27.48
2022-08-05T20:02:45.174Z,27.44
2022-08-05T20:05:24.167Z,27.40
2022-08-05T20:07:59.785Z,27.35
2022-08-05T20:10:33.434Z,27.30
2022-08-05T20:13:07.084Z,27.26
2022-08-05T20:15:50.783Z,27.22
2022-08-05T20:18:32.812Z,27.18
2022-08-05T20:21:09.267Z,27.13
2022-08-05T20:23:50.911Z,27.07
2022-08-05T20:26:27.182Z,27.03
2022-08-05T20:29:01.085Z,27.01
2022-08-05T20:31:43.048Z,26.97
2022-08-05T20:34:26.193Z,26.94
2022-08-05T20:36:59.920Z,26.76
2022-08-05T20:39:36.697Z,26.58
2022-08-05T20:42:11.617Z,26.46
2022-08-05T20:44:45.389Z,26.40
2022-08-05T20:47:19.669Z,26.31
2022-08-05T20:50:07.469Z,26.13
2022-08-05T20:52:42.429Z,25.98
2022-08-05T20:55:54.638Z,25.91
2022-08-05T20:58:11.276Z,25.92
2022-08-05T21:00:54.390Z,25.90
2022-08-05T21:03:28.500Z,25.86
2022-08-05T21:06:28.121Z,25.82
2022-08-05T21:09:02.402Z,25.74
2022-08-05T21:12:07.533Z,25.76
2022-08-05T21:14:34.661Z,25.78
2022-08-05T21:17:09.037Z,25.79
2022-08-05T21:19:47.582Z,25.81
2022-08-05T21:22:24.155Z,25.82
2022-08-05T21:24:57.834Z,25.77
2022-08-05T21:27:38.976Z,25.72
2022-08-05T21:30:17.609Z,25.68
2022-08-05T21:32:51.593Z,25.65
2022-08-05T21:35:30.174Z,25.63
2022-08-05T21:38:17.478Z,25.70
2022-08-05T21:40:51.174Z,25.79
2022-08-05T21:43:26.334Z,25.85
2022-08-05T21:46:07.560Z,25.91
2022-08-05T21:48:41.290Z,25.94
2022-08-05T21:51:25.225Z,25.96
2022-08-05T21:54:08.137Z,26.04
2022-08-05T21:56:44.256Z,25.93
2022-08-05T21:59:24.299Z,25.92
2022-08-05T22:02:00.063Z,25.86
2022-08-05T22:04:33.752Z,25.84
2022-08-05T22:07:08.693Z,25.79
2022-08-05T22:09:47.343Z,25.72
2022-08-05T22:12:21.268Z,25.65
2022-08-05T22:15:01.743Z,25.59
2022-08-05T22:17:48.527Z,25.55
2022-08-05T22:20:29.823Z,25.65
2022-08-05T22:23:22.361Z,25.51
2022-08-05T22:26:15.064Z,25.46
2022-08-05T22:28:48.822Z,25.42
2022-08-05T22:31:24.687Z,25.40
2022-08-05T22:34:03.697Z,25.40
2022-08-05T22:36:38.323Z,25.38
2022-08-05T22:39:16.251Z,25.37
2022-08-05T22:44:36.634Z,25.35
2022-08-05T22:47:11.083Z,25.33
2022-08-05T22:50:20.259Z,25.32
2022-08-05T22:52:40.722Z,25.32
2022-08-05T22:55:19.081Z,25.28
2022-08-05T22:57:55.180Z,25.16
2022-08-05T23:00:30.315Z,25.06
2022-08-05T23:03:05.199Z,24.95
2022-08-05T23:05:38.815Z,24.87
2022-08-05T23:08:14.270Z,24.79
2022-08-05T23:10:50.873Z,24.74
2022-08-05T23:13:26.932Z,24.68
2022-08-05T23:16:02.073Z,24.66
2022-08-05T23:18:35.807Z,24.64
2022-08-05T23:21:12.163Z,24.62
2022-08-05T23:23:50.151Z,24.63
2022-08-05T23:26:25.916Z,24.63
2022-08-05T23:29:01.218Z,24.65
2022-08-05T23:31:36.282Z,24.66
2022-08-05T23:34:09.897Z,24.66
2022-08-05T23:36:44.607Z,24.63
2022-08-05T23:39:31.759Z,24.64
2022-08-05T23:42:08.683Z,24.62
2022-08-05T23:44:54.234Z,24.61
2022-08-05T23:47:33.583Z,24.57
2022-08-05T23:50:09.337Z,24.55
2022-08-05T23:52:50.438Z,24.51
2022-08-05T23:55:31.104Z,24.49
2022-08-05T23:58:05.021Z,24.47
